Time;durP1;ratioP1;P1;durP2;ratioP2;P2;SDS_P1;SDS_P2;PMS_P1;PMS_P2;Temp;Humidity;BMP_temperature;BMP_pressure;BME280_temperature;BME280_humidity;BME280_pressure;Samples;Min_cycle;Max_cycle;Signal;HPM_P1;HPM_P2
2021/01/26 00:00:15;;;;;;;13.02;8.98;;;103.10;2227.20;;;;;;5065132;28;20038;-58
2021/01/26 00:02:41;;;;;;;14.95;9.52;;;103.20;2227.20;;;;;;5058647;28;20052;-57
2021/01/26 00:05:08;;;;;;;14.00;9.25;;;103.30;2227.20;;;;;;5069326;28;20059;-58
2021/01/26 00:07:34;;;;;;;13.15;8.43;;;103.10;2227.20;;;;;;5070514;28;20035;-55
2021/01/26 00:10:00;;;;;;;11.73;8.85;;;103.00;2227.20;;;;;;5068936;28;20033;-57
2021/01/26 00:12:27;;;;;;;10.50;7.82;;;103.20;2227.20;;;;;;5058220;28;20048;-57
2021/01/26 00:14:52;;;;;;;12.20;7.95;;;128.20;2252.80;;;;;;5070970;28;20028;-57
2021/01/26 00:17:18;;;;;;;11.93;8.50;;;128.00;2252.80;;;;;;5070251;28;20390;-57
2021/01/26 00:19:44;;;;;;;12.40;8.77;;;103.30;2227.20;;;;;;5038149;28;20041;-58
2021/01/26 00:22:09;;;;;;;10.90;8.48;;;103.30;2227.20;;;;;;5052020;28;20032;-58
2021/01/26 00:24:35;;;;;;;11.52;8.50;;;103.10;2227.20;;;;;;5050438;28;20013;-57
2021/01/26 00:27:01;;;;;;;12.57;9.20;;;103.10;2227.20;;;;;;5050973;28;20379;-58
2021/01/26 00:29:27;;;;;;;11.18;7.97;;;102.80;2227.20;;;;;;5067275;28;20021;-58
2021/01/26 00:31:53;;;;;;;14.18;9.35;;;103.10;2227.20;;;;;;5051463;28;20027;-58
2021/01/26 00:34:19;;;;;;;16.50;10.85;;;128.00;2252.80;;;;;;5052239;28;20480;-57
2021/01/26 00:36:44;;;;;;;22.23;14.00;;;103.20;2227.20;;;;;;5050592;28;20104;-58
2021/01/26 00:39:10;;;;;;;23.20;15.63;;;102.80;2227.20;;;;;;5050966;28;20017;-54
2021/01/26 00:41:36;;;;;;;23.55;14.68;;;102.80;2227.20;;;;;;5054026;28;20402;-62
2021/01/26 00:44:02;;;;;;;22.50;14.52;;;102.90;2227.20;;;;;;5055441;28;20549;-55
2021/01/26 00:46:27;;;;;;;24.15;16.13;;;103.10;2227.20;;;;;;5067029;28;20397;-63
2021/01/26 00:48:53;;;;;;;24.50;15.77;;;103.20;2227.20;;;;;;5071227;28;20023;-56
2021/01/26 00:51:19;;;;;;;22.60;15.57;;;128.00;2252.80;;;;;;5076340;28;20045;-57
2021/01/26 00:53:44;;;;;;;25.60;17.00;;;128.20;2252.80;;;;;;5057353;28;20382;-56
2021/01/26 00:56:10;;;;;;;28.52;17.63;;;128.20;2252.80;;;;;;5076237;28;20374;-55
2021/01/26 00:58:36;;;;;;;29.98;18.05;;;128.00;2252.80;;;;;;5073780;28;20028;-55
2021/01/26 01:01:02;;;;;;;28.95;17.98;;;128.00;2252.80;;;;;;5072672;28;20025;-57
2021/01/26 01:03:28;;;;;;;27.95;18.48;;;128.00;2227.20;;;;;;5057620;28;20111;-55
2021/01/26 01:05:54;;;;;;;29.42;19.02;;;128.10;2252.80;;;;;;5072070;28;20154;-55
2021/01/26 01:14:26;;;;;;;26.58;18.23;;;128.10;2252.80;;;;;;5361812;23;20096;-56
2021/01/26 01:16:52;;;;;;;26.65;18.35;;;128.10;2252.80;;;;;;5028142;28;20033;-56
2021/01/26 01:19:18;;;;;;;24.33;16.75;;;128.30;2227.20;;;;;;5031687;28;20368;-53
2021/01/26 01:21:43;;;;;;;21.00;14.27;;;128.20;2227.20;;;;;;5032074;28;20033;-56
2021/01/26 01:24:09;;;;;;;21.75;12.90;;;128.20;2227.20;;;;;;5032443;28;20025;-55
2021/01/26 01:26:35;;;;;;;19.23;12.50;;;128.10;2227.20;;;;;;5032091;28;20424;-53
2021/01/26 01:29:01;;;;;;;20.17;12.82;;;128.00;2252.80;;;;;;5031679;28;20033;-53
2021/01/26 01:31:27;;;;;;;17.90;11.20;;;128.00;2252.80;;;;;;5032167;28;20033;-55
2021/01/26 01:33:52;;;;;;;14.93;11.18;;;103.30;2227.20;;;;;;5031382;28;20037;-54
2021/01/26 01:36:18;;;;;;;14.88;10.52;;;103.30;2227.20;;;;;;5032565;28;20380;-54
2021/01/26 01:38:44;;;;;;;14.27;9.27;;;103.20;2227.20;;;;;;5031399;28;20351;-56
2021/01/26 01:41:10;;;;;;;15.95;10.80;;;103.10;2227.20;;;;;;5033449;28;20033;-55
2021/01/26 01:43:36;;;;;;;13.80;9.63;;;102.90;2227.20;;;;;;5033345;28;20542;-55
2021/01/26 01:46:08;;;;;;;15.82;9.43;;;103.00;2227.20;;;;;;5033905;28;20064;-55
2021/01/26 01:48:35;;;;;;;16.15;9.90;;;103.00;2227.20;;;;;;5034184;28;20034;-55
2021/01/26 01:51:09;;;;;;;14.60;9.55;;;102.70;2227.20;;;;;;5034822;28;20034;-60
2021/01/26 01:53:54;;;;;;;15.00;9.90;;;102.70;2227.20;;;;;;5034675;28;20096;-57
2021/01/26 01:56:43;;;;;;;16.92;10.23;;;102.70;2227.20;;;;;;5034242;28;20057;-59
2021/01/26 01:59:14;;;;;;;14.02;9.07;;;102.70;2227.20;;;;;;5031329;28;20104;-55
2021/01/26 02:01:41;;;;;;;13.15;8.48;;;102.60;2227.20;;;;;;5035240;28;20435;-54
2021/01/26 02:04:19;;;;;;;15.38;9.30;;;102.60;2227.20;;;;;;5034735;28;20387;-54
2021/01/26 02:06:50;;;;;;;12.65;8.85;;;102.70;2227.20;;;;;;5035892;28;20044;-54
2021/01/26 02:09:33;;;;;;;12.73;9.05;;;102.90;2227.20;;;;;;5035389;28;20056;-54
2021/01/26 02:11:58;;;;;;;12.55;8.35;;;102.90;2227.20;;;;;;5035340;28;20029;-54
2021/01/26 02:14:28;;;;;;;12.00;8.02;;;103.00;2227.20;;;;;;5034770;28;20050;-55
2021/01/26 02:17:21;;;;;;;13.02;8.73;;;103.00;2227.20;;;;;;5035382;28;20017;-55
2021/01/26 02:19:56;;;;;;;12.43;8.82;;;103.00;2227.20;;;;;;5016070;28;20101;-54
2021/01/26 02:22:45;;;;;;;17.25;8.85;;;103.10;2227.20;;;;;;5015667;28;20026;-55
2021/01/26 02:25:48;;;;;;;14.07;9.32;;;103.20;2227.20;;;;;;5022024;28;20033;-55
2021/01/26 02:28:13;;;;;;;18.48;10.95;;;103.00;2227.20;;;;;;5002435;28;20050;-54
2021/01/26 02:30:42;;;;;;;19.23;11.88;;;103.10;2227.20;;;;;;4999017;28;20018;-55
2021/01/26 02:33:26;;;;;;;18.00;12.45;;;103.10;2227.20;;;;;;5004443;28;20109;-54
2021/01/26 02:36:01;;;;;;;20.65;13.60;;;103.10;2227.20;;;;;;5005622;28;20023;-54
2021/01/26 02:39:04;;;;;;;19.40;12.50;;;102.90;2227.20;;;;;;5012102;28;20037;-55
2021/01/26 02:41:37;;;;;;;23.55;14.35;;;102.90;2227.20;;;;;;4972061;28;20481;-55
2021/01/26 02:45:00;;;;;;;23.58;15.18;;;102.60;2227.20;;;;;;5008255;28;20369;-55
2021/01/26 02:47:54;;;;;;;23.15;14.30;;;102.70;2227.20;;;;;;4922449;29;20075;-55
2021/01/26 02:50:45;;;;;;;21.40;15.30;;;102.70;2227.20;;;;;;4935181;29;20024;-54
2021/01/26 02:53:21;;;;;;;24.70;15.93;;;102.60;2227.20;;;;;;4935291;29;20047;-53
2021/01/26 02:56:28;;;;;;;26.10;16.65;;;102.70;2227.20;;;;;;4935192;29;20115;-54
2021/01/26 02:59:27;;;;;;;22.30;15.23;;;102.70;2227.20;;;;;;4859545;29;20527;-54
2021/01/26 03:02:19;;;;;;;22.30;16.05;;;102.80;2227.20;;;;;;4860329;29;20094;-54
2021/01/26 03:04:59;;;;;;;22.38;15.15;;;102.80;2227.20;;;;;;4860023;29;20033;-53
2021/01/26 03:07:29;;;;;;;20.80;14.48;;;102.70;2227.20;;;;;;4859388;29;20121;-53
2021/01/26 03:09:59;;;;;;;20.83;13.73;;;102.80;2227.20;;;;;;4859713;29;20528;-53
2021/01/26 03:12:33;;;;;;;22.88;15.00;;;102.80;2227.20;;;;;;4858741;29;20106;-53
2021/01/26 03:15:05;;;;;;;18.73;12.77;;;102.90;2227.20;;;;;;4859393;29;20085;-54
2021/01/26 03:17:59;;;;;;;20.23;13.85;;;102.50;2227.20;;;;;;4873378;29;20531;-53
2021/01/26 03:20:33;;;;;;;19.63;14.23;;;102.40;2227.20;;;;;;4929124;29;20031;-55
2021/01/26 03:23:03;;;;;;;18.42;12.55;;;102.60;2227.20;;;;;;4934586;29;20478;-53
2021/01/26 03:25:30;;;;;;;22.70;13.25;;;102.70;2227.20;;;;;;4935107;29;20521;-55
2021/01/26 03:28:05;;;;;;;22.98;15.18;;;102.70;2227.20;;;;;;4934194;29;20090;-53
2021/01/26 03:30:35;;;;;;;18.80;12.70;;;102.80;2227.20;;;;;;4934453;29;20036;-54
2021/01/26 03:33:07;;;;;;;22.20;14.23;;;102.80;2227.20;;;;;;4935606;29;20131;-55
2021/01/26 03:35:33;;;;;;;19.23;13.75;;;102.80;2227.20;;;;;;4963279;28;20034;-53
2021/01/26 03:38:14;;;;;;;22.50;13.27;;;102.80;2227.20;;;;;;5013833;28;20021;-54
2021/01/26 03:40:39;;;;;;;22.45;14.68;;;102.80;2227.20;;;;;;4996202;28;20380;-55
2021/01/26 03:43:05;;;;;;;20.63;13.77;;;102.90;2227.20;;;;;;5013789;28;20038;-54
2021/01/26 03:45:31;;;;;;;20.20;13.80;;;103.00;2227.20;;;;;;5014068;28;20526;-55
2021/01/26 03:48:02;;;;;;;19.55;14.93;;;102.70;2227.20;;;;;;5013801;28;20117;-54
2021/01/26 03:51:05;;;;;;;22.05;14.63;;;102.90;2227.20;;;;;;5014135;28;20053;-54
2021/01/26 03:53:51;;;;;;;22.88;15.52;;;102.90;2227.20;;;;;;5014019;28;20120;-54
2021/01/26 03:56:42;;;;;;;22.23;15.05;;;103.00;2227.20;;;;;;5013620;28;20026;-54
2021/01/26 03:59:32;;;;;;;27.25;16.63;;;102.90;2227.20;;;;;;5013784;28;20037;-53
2021/01/26 04:02:23;;;;;;;22.70;15.68;;;102.90;2227.20;;;;;;5013722;28;20104;-53
2021/01/26 04:05:21;;;;;;;24.90;16.63;;;102.90;2227.20;;;;;;5013739;28;20030;-53
2021/01/26 04:08:02;;;;;;;28.05;18.23;;;102.90;2227.20;;;;;;5006023;28;20050;-56
2021/01/26 04:10:34;;;;;;;26.40;16.77;;;102.90;2227.20;;;;;;5013630;28;20022;-53
2021/01/26 04:13:05;;;;;;;28.30;18.45;;;102.90;2227.20;;;;;;5012791;28;20112;-52
2021/01/26 04:15:49;;;;;;;27.05;16.95;;;103.10;2227.20;;;;;;5013632;28;20490;-53
2021/01/26 04:18:20;;;;;;;31.17;17.98;;;103.10;2227.20;;;;;;5014196;28;20021;-53
2021/01/26 04:20:48;;;;;;;30.33;18.40;;;103.10;2227.20;;;;;;5014728;28;20060;-54
2021/01/26 04:23:14;;;;;;;29.27;17.67;;;103.00;2227.20;;;;;;5015003;28;20032;-55
2021/01/26 04:25:43;;;;;;;28.67;19.15;;;103.00;2227.20;;;;;;5014877;28;20077;-54
2021/01/26 04:28:16;;;;;;;31.15;20.02;;;103.10;2227.20;;;;;;5014879;28;20133;-54
2021/01/26 04:30:42;;;;;;;32.10;18.50;;;103.20;2227.20;;;;;;5014447;28;20021;-54
2021/01/26 04:33:12;;;;;;;31.67;20.33;;;103.30;2227.20;;;;;;5014730;28;20029;-54
2021/01/26 04:35:39;;;;;;;31.73;19.98;;;103.20;2227.20;;;;;;5013782;28;20018;-53
2021/01/26 04:38:05;;;;;;;28.30;18.48;;;103.20;2227.20;;;;;;5012994;28;20026;-52
2021/01/26 04:40:32;;;;;;;28.98;18.38;;;103.20;2227.20;;;;;;5012952;28;20384;-53
2021/01/26 04:43:08;;;;;;;30.75;19.33;;;103.30;2227.20;;;;;;5012619;28;20026;-55
2021/01/26 04:45:43;;;;;;;28.85;18.50;;;103.30;2227.20;;;;;;5012575;28;20053;-55
2021/01/26 04:48:15;;;;;;;30.50;19.92;;;103.10;2227.20;;;;;;5012903;28;20137;-55
2021/01/26 04:51:01;;;;;;;30.02;19.33;;;103.20;2227.20;;;;;;5012486;28;20050;-55
2021/01/26 04:53:56;;;;;;;30.77;20.35;;;103.10;2227.20;;;;;;5012939;28;20376;-54
2021/01/26 04:56:33;;;;;;;31.95;19.17;;;103.00;2227.20;;;;;;5001670;28;20033;-55
2021/01/26 04:59:27;;;;;;;32.90;19.40;;;102.90;2227.20;;;;;;5012388;28;20034;-55
2021/01/26 05:02:21;;;;;;;31.08;19.55;;;102.90;2227.20;;;;;;5012600;28;20030;-55
2021/01/26 05:04:52;;;;;;;29.52;18.17;;;102.80;2227.20;;;;;;5011734;28;20065;-54
2021/01/26 05:07:25;;;;;;;31.35;18.85;;;102.70;2227.20;;;;;;5012779;28;20037;-54
2021/01/26 05:10:06;;;;;;;33.50;19.10;;;102.70;2227.20;;;;;;5012642;28;20022;-55
2021/01/26 05:12:41;;;;;;;30.88;20.13;;;102.70;2227.20;;;;;;5012231;28;20030;-55
2021/01/26 05:15:09;;;;;;;27.92;17.05;;;102.60;2227.20;;;;;;5012092;28;20045;-55
2021/01/26 05:17:51;;;;;;;29.00;16.50;;;102.70;2227.20;;;;;;5012107;28;20022;-55
2021/01/26 05:20:23;;;;;;;31.75;18.60;;;102.60;2227.20;;;;;;5012790;28;20119;-55
2021/01/26 05:23:01;;;;;;;32.60;17.67;;;102.60;2227.20;;;;;;5012159;28;20400;-55
2021/01/26 05:25:27;;;;;;;32.03;18.80;;;102.40;2227.20;;;;;;5012194;28;20487;-55
2021/01/26 05:27:53;;;;;;;32.95;17.77;;;102.40;2227.20;;;;;;5011910;28;20555;-55
2021/01/26 05:30:28;;;;;;;34.58;18.42;;;102.40;2227.20;;;;;;5012177;28;20104;-55
2021/01/26 05:32:55;;;;;;;30.83;18.63;;;102.40;2227.20;;;;;;5012132;28;20026;-55
2021/01/26 05:35:22;;;;;;;32.08;19.35;;;102.40;2227.20;;;;;;5015288;28;20033;-59
2021/01/26 05:37:49;;;;;;;30.75;19.33;;;102.40;2227.20;;;;;;5019109;28;20025;-55
2021/01/26 05:40:27;;;;;;;29.55;19.02;;;77.70;2227.20;;;;;;5018902;28;20025;-53
2021/01/26 05:42:56;;;;;;;31.63;18.63;;;77.70;2227.20;;;;;;5018726;28;20018;-54
2021/01/26 05:45:30;;;;;;;29.02;17.52;;;77.60;2227.20;;;;;;5018644;28;20034;-55
2021/01/26 05:48:23;;;;;;;31.70;17.27;;;77.50;2227.20;;;;;;5018251;28;20064;-55
2021/01/26 05:50:51;;;;;;;28.00;16.92;;;77.30;2227.20;;;;;;5015373;28;20116;-55
2021/01/26 05:53:33;;;;;;;31.17;20.02;;;77.30;2227.20;;;;;;5018748;28;20034;-54
2021/01/26 05:56:12;;;;;;;32.92;18.75;;;77.30;2227.20;;;;;;5018597;28;20026;-55
2021/01/26 05:58:41;;;;;;;29.30;18.42;;;77.30;2227.20;;;;;;5018240;28;20026;-55
2021/01/26 06:01:09;;;;;;;32.33;19.30;;;77.30;2227.20;;;;;;5018482;28;20030;-54
2021/01/26 06:03:35;;;;;;;28.60;16.85;;;77.30;2227.20;;;;;;5018983;28;20037;-55
2021/01/26 06:06:17;;;;;;;28.73;18.08;;;77.30;2227.20;;;;;;5011919;28;20029;-55
2021/01/26 06:08:54;;;;;;;25.50;16.25;;;77.30;2227.20;;;;;;5018763;28;20565;-56
2021/01/26 06:11:29;;;;;;;31.27;16.65;;;77.30;2227.20;;;;;;5018359;28;20034;-56
2021/01/26 06:14:12;;;;;;;26.95;17.05;;;77.30;2227.20;;;;;;5018241;28;20133;-53
2021/01/26 06:16:38;;;;;;;30.05;17.58;;;77.30;2227.20;;;;;;5006141;28;20487;-55
2021/01/26 06:19:05;;;;;;;30.70;18.75;;;77.30;2227.20;;;;;;5018744;28;20025;-54
2021/01/26 06:21:51;;;;;;;27.30;17.15;;;77.20;2227.20;;;;;;5018528;28;20092;-53
2021/01/26 06:24:22;;;;;;;29.45;17.58;;;77.30;2227.20;;;;;;5018088;28;20030;-53
2021/01/26 06:27:00;;;;;;;28.05;17.98;;;77.30;2227.20;;;;;;4999752;28;20132;-55
2021/01/26 06:29:35;;;;;;;29.48;17.02;;;77.30;2227.20;;;;;;5018126;28;20053;-55
2021/01/26 06:32:11;;;;;;;30.30;17.98;;;77.30;2227.20;;;;;;5018234;28;20052;-54
2021/01/26 06:34:52;;;;;;;25.45;16.23;;;77.30;2227.20;;;;;;5018065;28;20112;-54
2021/01/26 06:37:38;;;;;;;25.90;15.70;;;77.40;2227.20;;;;;;5018306;28;20030;-55
2021/01/26 06:40:47;;;;;;;28.30;16.73;;;77.40;2227.20;;;;;;5018189;28;20022;-53
2021/01/26 06:43:21;;;;;;;27.05;15.60;;;77.40;2227.20;;;;;;4917793;29;20043;-53
2021/01/26 06:46:09;;;;;;;27.25;17.20;;;77.30;2227.20;;;;;;4919094;29;20142;-56
2021/01/26 06:49:02;;;;;;;29.40;17.25;;;77.40;2227.20;;;;;;4916581;29;20044;-54
2021/01/26 06:51:39;;;;;;;27.15;16.67;;;77.30;2227.20;;;;;;4912506;29;20043;-54
2021/01/26 06:54:31;;;;;;;25.20;14.45;;;77.30;2227.20;;;;;;4917765;29;20039;-56
2021/01/26 06:57:22;;;;;;;27.88;16.55;;;77.20;2227.20;;;;;;4916741;28;20032;-55
2021/01/26 06:59:59;;;;;;;29.77;17.23;;;77.20;2227.20;;;;;;4915754;29;20032;-55
2021/01/26 07:02:25;;;;;;;33.65;16.67;;;77.30;2227.20;;;;;;4915759;29;20096;-57
2021/01/26 07:05:18;;;;;;;28.35;15.95;;;77.40;2227.20;;;;;;4916835;29;20040;-55
2021/01/26 07:08:05;;;;;;;27.45;16.92;;;77.20;2227.20;;;;;;4915843;29;20442;-55
2021/01/26 07:10:57;;;;;;;30.15;15.82;;;77.30;2227.20;;;;;;4916196;29;20108;-53
2021/01/26 07:13:29;;;;;;;26.83;16.30;;;77.40;2227.20;;;;;;4916225;29;20048;-56
2021/01/26 07:16:00;;;;;;;26.10;15.57;;;77.40;2227.20;;;;;;4916588;29;20032;-55
2021/01/26 07:18:31;;;;;;;26.50;17.20;;;77.50;2227.20;;;;;;5004273;28;20042;-54
2021/01/26 07:21:26;;;;;;;27.60;15.95;;;77.50;2227.20;;;;;;5014756;28;20029;-54
2021/01/26 07:23:54;;;;;;;27.45;16.00;;;77.50;2227.20;;;;;;4997485;28;20458;-54
2021/01/26 07:26:25;;;;;;;25.77;16.13;;;77.50;2227.20;;;;;;5015327;28;20026;-54
2021/01/26 07:29:18;;;;;;;27.27;17.08;;;77.50;2227.20;;;;;;5017935;28;20025;-53
2021/01/26 07:31:53;;;;;;;29.52;16.60;;;77.50;2227.20;;;;;;5007583;28;20033;-53
2021/01/26 07:34:57;;;;;;;25.63;15.65;;;77.40;2227.20;;;;;;5013545;28;20033;-53
2021/01/26 07:37:28;;;;;;;28.73;16.10;;;77.50;2227.20;;;;;;4916115;29;20456;-54
2021/01/26 07:40:34;;;;;;;26.88;16.55;;;77.50;2227.20;;;;;;4916269;29;20055;-54
2021/01/26 07:43:22;;;;;;;31.75;17.42;;;77.40;2227.20;;;;;;4915505;29;20406;-53
2021/01/26 07:45:59;;;;;;;34.97;17.60;;;77.20;2227.20;;;;;;4917683;29;20112;-53
2021/01/26 07:48:50;;;;;;;28.00;17.02;;;77.40;2227.20;;;;;;4917459;29;20705;-53
2021/01/26 07:51:26;;;;;;;30.75;17.08;;;77.40;2227.20;;;;;;4918562;29;20027;-53
2021/01/26 07:54:21;;;;;;;32.55;17.67;;;77.40;2227.20;;;;;;4915546;29;20048;-54
2021/01/26 07:56:47;;;;;;;33.00;17.25;;;77.50;2227.20;;;;;;4916258;29;20056;-54
2021/01/26 07:59:25;;;;;;;30.75;17.52;;;77.30;2227.20;;;;;;4915392;29;20505;-55
2021/01/26 08:01:56;;;;;;;32.20;18.02;;;77.50;2227.20;;;;;;4915275;29;20042;-53
2021/01/26 08:04:22;;;;;;;34.03;18.15;;;77.60;2227.20;;;;;;4914795;29;20192;-53
2021/01/26 08:07:04;;;;;;;30.40;18.83;;;77.40;2227.20;;;;;;4915332;29;20033;-53
2021/01/26 08:09:32;;;;;;;38.60;23.92;;;77.40;2227.20;;;;;;4993582;28;20027;-53
2021/01/26 08:12:05;;;;;;;32.38;17.42;;;77.40;2227.20;;;;;;4997769;28;20499;-53
2021/01/26 08:14:36;;;;;;;30.55;18.33;;;77.60;2201.60;;;;;;5000769;28;20062;-53
2021/01/26 08:17:04;;;;;;;31.15;16.73;;;77.30;2201.60;;;;;;5006489;28;20026;-53
2021/01/26 08:19:36;;;;;;;29.35;17.48;;;77.60;2201.60;;;;;;5006818;28;20057;-53
2021/01/26 08:22:34;;;;;;;30.20;17.73;;;77.60;2201.60;;;;;;5013250;28;20384;-53
2021/01/26 08:25:21;;;;;;;27.85;15.45;;;77.60;2201.60;;;;;;5011347;28;20444;-55
2021/01/26 08:27:47;;;;;;;28.33;16.50;;;102.40;2124.80;;;;;;4999595;28;20043;-53
2021/01/26 08:30:29;;;;;;;30.63;16.65;;;77.50;2176.00;;;;;;5019153;28;20033;-53
2021/01/26 08:33:05;;;;;;;33.15;19.05;;;77.50;2201.60;;;;;;5019995;28;20025;-53
2021/01/26 08:35:33;;;;;;;27.83;15.18;;;102.60;2124.80;;;;;;5024558;28;20022;-54
2021/01/26 08:37:59;;;;;;;24.55;16.05;;;102.90;2099.20;;;;;;5021099;28;20030;-53
2021/01/26 08:40:28;;;;;;;28.48;17.58;;;102.90;2073.60;;;;;;5022589;28;20021;-53
2021/01/26 08:43:02;;;;;;;26.77;15.63;;;102.80;2099.20;;;;;;5015929;28;20025;-53
2021/01/26 08:45:27;;;;;;;30.67;17.92;;;102.70;2073.60;;;;;;5012724;28;20030;-53
2021/01/26 08:47:57;;;;;;;29.02;16.95;;;102.80;2073.60;;;;;;5012668;28;20041;-53
2021/01/26 08:50:35;;;;;;;26.63;16.08;;;103.00;2048.00;;;;;;5012793;28;20034;-53
2021/01/26 08:53:27;;;;;;;27.80;16.50;;;103.30;1996.80;;;;;;5013064;28;20502;-53
2021/01/26 08:56:10;;;;;;;23.10;15.45;;;103.20;1996.80;;;;;;5012736;28;20032;-54
2021/01/26 08:58:55;;;;;;;32.50;16.90;;;128.00;1996.80;;;;;;5012862;28;20036;-54
2021/01/26 09:01:25;;;;;;;28.38;15.98;;;103.20;1996.80;;;;;;4999763;28;20026;-54
2021/01/26 09:04:14;;;;;;;29.63;16.15;;;103.20;1996.80;;;;;;5012425;28;20022;-54
2021/01/26 09:06:43;;;;;;;25.15;15.55;;;103.20;1996.80;;;;;;5012401;28;20122;-54
2021/01/26 09:09:31;;;;;;;28.00;15.32;;;103.30;1996.80;;;;;;5012144;28;20022;-54
2021/01/26 09:12:05;;;;;;;24.70;15.00;;;103.20;1996.80;;;;;;5012849;28;20494;-54
2021/01/26 09:14:40;;;;;;;24.77;15.23;;;128.00;1996.80;;;;;;4994356;28;20445;-55
2021/01/26 09:17:23;;;;;;;26.13;15.20;;;103.20;1945.60;;;;;;5003784;28;20457;-54
2021/01/26 09:19:58;;;;;;;23.98;15.45;;;103.20;1971.20;;;;;;5011447;28;20404;-58
2021/01/26 09:22:26;;;;;;;24.70;14.25;;;102.90;1971.20;;;;;;5013365;28;20026;-55
2021/01/26 09:25:12;;;;;;;21.90;13.45;;;102.90;1971.20;;;;;;5012330;28;20022;-53
2021/01/26 09:27:37;;;;;;;23.13;13.70;;;102.90;1945.60;;;;;;5012702;28;20034;-54
2021/01/26 09:30:20;;;;;;;22.70;13.48;;;103.00;1920.00;;;;;;5012292;28;20391;-54
2021/01/26 09:33:01;;;;;;;25.60;13.50;;;103.20;1894.40;;;;;;5012035;28;20037;-52
2021/01/26 09:35:29;;;;;;;25.60;14.10;;;103.30;1868.80;;;;;;4998966;28;20026;-53
2021/01/26 09:38:00;;;;;;;26.27;14.45;;;128.20;1894.40;;;;;;5012295;28;20065;-53
2021/01/26 09:40:26;;;;;;;23.73;13.48;;;128.20;1868.80;;;;;;5012277;28;20060;-54
2021/01/26 09:43:20;;;;;;;23.45;13.90;;;128.20;1843.20;;;;;;5023590;28;20387;-54
2021/01/26 09:46:00;;;;;;;24.70;14.27;;;128.10;1894.40;;;;;;4999948;28;20026;-53
2021/01/26 09:48:45;;;;;;;27.27;14.65;;;103.30;1920.00;;;;;;5013653;28;20037;-54
2021/01/26 09:51:24;;;;;;;26.30;14.18;;;103.20;1894.40;;;;;;5017227;28;20475;-55
2021/01/26 09:54:03;;;;;;;27.13;14.10;;;103.30;1868.80;;;;;;5016819;28;20026;-55
2021/01/26 09:56:30;;;;;;;24.00;13.70;;;128.30;1843.20;;;;;;5015516;28;20060;-54
2021/01/26 09:58:57;;;;;;;23.80;14.48;;;128.10;1868.80;;;;;;5012120;28;20053;-53
2021/01/26 10:01:24;;;;;;;24.42;14.02;;;103.30;1868.80;;;;;;5012480;28;20030;-53
2021/01/26 10:03:56;;;;;;;22.67;13.10;;;128.20;1868.80;;;;;;5012553;28;20076;-54
2021/01/26 10:06:21;;;;;;;26.10;14.60;;;128.30;1843.20;;;;;;5011863;28;20403;-53
2021/01/26 10:08:47;;;;;;;25.17;14.88;;;128.30;1843.20;;;;;;5011772;28;20038;-54
2021/01/26 10:11:18;;;;;;;25.33;14.57;;;128.00;1894.40;;;;;;5012644;28;20022;-53
2021/01/26 10:13:45;;;;;;;27.00;16.05;;;103.30;1894.40;;;;;;5011419;28;20203;-54
2021/01/26 10:16:34;;;;;;;28.80;14.88;;;128.00;1894.40;;;;;;5010239;28;20084;-53
2021/01/26 10:19:11;;;;;;;26.17;15.52;;;128.00;1920.00;;;;;;5002931;28;20022;-53
2021/01/26 10:21:37;;;;;;;29.52;15.95;;;103.20;1920.00;;;;;;5013135;28;20018;-55
2021/01/26 10:24:11;;;;;;;29.23;15.82;;;103.10;1920.00;;;;;;5015890;28;20385;-55
2021/01/26 10:26:39;;;;;;;26.38;15.18;;;103.00;1920.00;;;;;;5016063;28;20022;-54
2021/01/26 10:29:10;;;;;;;30.10;16.02;;;103.10;1920.00;;;;;;5015843;28;20030;-54
2021/01/26 10:31:55;;;;;;;26.90;15.25;;;103.10;1920.00;;;;;;5015253;28;20026;-54
2021/01/26 10:34:35;;;;;;;28.38;15.68;;;103.10;1920.00;;;;;;5015392;28;20042;-54
2021/01/26 10:37:22;;;;;;;27.52;16.08;;;103.10;1920.00;;;;;;5015831;28;20022;-54
2021/01/26 10:40:13;;;;;;;28.05;15.93;;;103.30;1894.40;;;;;;5015588;28;20359;-54
2021/01/26 10:42:44;;;;;;;26.83;14.07;;;103.10;1920.00;;;;;;5001507;28;20042;-54
2021/01/26 10:45:11;;;;;;;26.98;15.38;;;102.90;1945.60;;;;;;5015086;28;20559;-55
2021/01/26 10:47:40;;;;;;;26.15;15.27;;;102.90;1971.20;;;;;;5014854;28;20041;-54
2021/01/26 10:50:27;;;;;;;27.02;14.52;;;103.10;1945.60;;;;;;5015126;28;20057;-54
2021/01/26 10:52:53;;;;;;;31.58;15.75;;;103.00;1945.60;;;;;;5015025;28;20489;-54
2021/01/26 10:55:23;;;;;;;26.85;15.68;;;102.90;1971.20;;;;;;5001156;28;20503;-54
2021/01/26 10:57:51;;;;;;;28.05;16.25;;;102.70;1996.80;;;;;;5015091;28;20366;-55
2021/01/26 11:00:23;;;;;;;27.40;15.85;;;102.70;2022.40;;;;;;5015003;28;20030;-54
2021/01/26 11:02:53;;;;;;;28.40;16.23;;;102.70;2022.40;;;;;;5014820;28;20018;-54
2021/01/26 11:05:19;;;;;;;29.40;17.00;;;102.70;2022.40;;;;;;5015180;28;20022;-54
2021/01/26 11:07:45;;;;;;;34.65;18.10;;;102.70;2022.40;;;;;;5014644;28;20384;-55
2021/01/26 11:10:12;;;;;;;27.13;15.85;;;102.80;1996.80;;;;;;5014904;28;20026;-54
2021/01/26 11:12:39;;;;;;;27.75;15.68;;;102.50;1996.80;;;;;;5014232;28;20482;-54
2021/01/26 11:15:08;;;;;;;26.08;14.73;;;77.60;2048.00;;;;;;5014545;28;20046;-54
2021/01/26 11:17:33;;;;;;;26.20;15.13;;;77.60;2048.00;;;;;;4997975;28;20029;-56
2021/01/26 11:19:59;;;;;;;25.20;15.27;;;77.60;2048.00;;;;;;5013141;28;20026;-55
2021/01/26 11:22:25;;;;;;;25.38;14.73;;;77.70;2073.60;;;;;;5014607;28;20076;-54
2021/01/26 11:24:50;;;;;;;26.00;14.30;;;102.40;2048.00;;;;;;5014284;28;20018;-53
2021/01/26 11:27:16;;;;;;;25.38;14.52;;;102.50;2022.40;;;;;;5014811;28;20037;-54
2021/01/26 11:29:42;;;;;;;27.13;14.98;;;102.40;2048.00;;;;;;5013838;28;20053;-54
2021/01/26 11:32:07;;;;;;;24.42;14.48;;;77.70;2048.00;;;;;;4996755;28;20037;-54
2021/01/26 11:34:33;;;;;;;23.42;13.70;;;77.70;2022.40;;;;;;5013491;28;20026;-54
2021/01/26 11:36:59;;;;;;;23.98;14.82;;;77.40;2048.00;;;;;;5010825;28;20049;-54
2021/01/26 11:39:24;;;;;;;23.88;14.40;;;77.60;2022.40;;;;;;4997501;28;20106;-54
2021/01/26 11:41:50;;;;;;;28.30;13.75;;;77.50;2048.00;;;;;;5000641;28;20033;-54
2021/01/26 11:44:16;;;;;;;24.13;13.25;;;77.70;2022.40;;;;;;4998873;28;20058;-54
2021/01/26 11:46:42;;;;;;;25.00;13.13;;;77.60;2022.40;;;;;;4996429;28;20547;-55
2021/01/26 11:49:08;;;;;;;24.63;14.27;;;102.40;2022.40;;;;;;4997355;28;20027;-54
2021/01/26 11:51:33;;;;;;;26.05;14.43;;;102.50;1996.80;;;;;;5000352;28;20076;-54
2021/01/26 11:53:59;;;;;;;27.83;16.20;;;102.50;1996.80;;;;;;5003014;28;20034;-54
2021/01/26 11:56:25;;;;;;;26.38;13.98;;;102.70;1996.80;;;;;;5000102;28;20022;-54
2021/01/26 11:58:51;;;;;;;28.27;16.00;;;102.50;2022.40;;;;;;4999081;28;20017;-54
2021/01/26 12:01:17;;;;;;;24.05;14.30;;;102.40;2048.00;;;;;;4995526;28;20476;-54
2021/01/26 12:03:44;;;;;;;25.95;15.05;;;77.60;2099.20;;;;;;4997663;28;20061;-54
2021/01/26 12:06:09;;;;;;;27.13;15.88;;;77.60;2124.80;;;;;;4993938;28;20065;-54
2021/01/26 12:08:35;;;;;;;27.73;14.52;;;77.70;2099.20;;;;;;4998313;28;20058;-55
2021/01/26 12:11:01;;;;;;;25.88;14.40;;;102.50;2073.60;;;;;;5010565;28;20025;-54
2021/01/26 12:13:28;;;;;;;22.60;13.25;;;102.40;2048.00;;;;;;4996917;28;20030;-54
2021/01/26 12:15:53;;;;;;;25.77;15.00;;;102.60;2022.40;;;;;;4999402;28;20046;-56
2021/01/26 12:18:19;;;;;;;24.27;14.93;;;102.50;1996.80;;;;;;4993712;28;20053;-56
2021/01/26 12:20:45;;;;;;;26.70;15.18;;;102.40;1996.80;;;;;;4978365;28;20077;-56
2021/01/26 12:23:11;;;;;;;30.00;17.55;;;102.60;1996.80;;;;;;5002249;28;20021;-56
2021/01/26 12:25:40;;;;;;;28.05;16.35;;;102.50;2022.40;;;;;;4997580;28;20058;-54
2021/01/26 12:28:06;;;;;;;;;;;102.60;1996.80;;;;;;4992758;28;20062;-56
2021/01/26 12:30:31;;;;;;;25.45;14.95;;;102.70;1996.80;;;;;;4998667;28;19914;-55
2021/01/26 12:32:57;;;;;;;28.08;14.70;;;102.70;1971.20;;;;;;4997016;28;20029;-57
2021/01/26 12:35:26;;;;;;;27.70;15.23;;;102.60;1971.20;;;;;;5009589;28;20089;-62
2021/01/26 12:37:52;;;;;;;26.63;14.65;;;102.80;1945.60;;;;;;5010396;28;20038;-55
2021/01/26 12:40:19;;;;;;;32.45;16.95;;;102.90;1945.60;;;;;;5003469;28;20030;-54
2021/01/26 12:42:45;;;;;;;26.85;14.93;;;102.60;1971.20;;;;;;5011910;28;20029;-54